Time;durP1;ratioP1;P1;durP2;ratioP2;P2;SDS_P1;SDS_P2;PMS_P1;PMS_P2;Temp;Humidity;BMP_temperature;BMP_pressure;BME280_temperature;BME280_humidity;BME280_pressure;Samples;Min_cycle;Max_cycle;Signal;HPM_P1;HPM_P2
2023/11/24 00:02:13;;;;;;;0.80;0.80;;;;;;;7.10;90.94;98348.06;4996198;28;20045;-77
2023/11/24 00:04:39;;;;;;;0.77;0.77;;;;;;;7.04;91.26;98347.88;4996536;28;20042;-78
2023/11/24 00:07:04;;;;;;;0.70;0.70;;;;;;;7.06;91.43;98346.16;4997880;28;20372;-77
2023/11/24 00:09:30;;;;;;;0.70;0.70;;;;;;;7.04;91.17;98336.31;4996969;28;20076;-77
2023/11/24 00:11:58;;;;;;;0.80;0.80;;;;;;;6.97;91.99;98323.69;4995963;28;20022;-78
2023/11/24 00:14:23;;;;;;;0.70;0.70;;;;;;;7.04;91.88;98318.69;4998811;28;20725;-77
2023/11/24 00:16:49;;;;;;;0.80;0.80;;;;;;;6.97;91.50;98316.66;4999052;28;20547;-77
2023/11/24 00:19:15;;;;;;;0.70;0.70;;;;;;;6.96;91.72;98311.28;4999926;28;20043;-77
2023/11/24 00:21:44;;;;;;;0.80;0.80;;;;;;;6.91;91.23;98309.38;4997823;28;20044;-76
2023/11/24 00:24:10;;;;;;;0.80;0.80;;;;;;;6.85;91.33;98308.22;4996780;28;20030;-76
2023/11/24 00:26:36;;;;;;;0.90;0.90;;;;;;;6.79;91.50;98310.66;4998798;28;20645;-76
2023/11/24 00:29:02;;;;;;;0.90;0.90;;;;;;;6.67;91.43;98300.50;4999318;28;20076;-77
2023/11/24 00:31:28;;;;;;;0.80;0.80;;;;;;;6.64;91.39;98300.38;5000368;28;20084;-77
2023/11/24 00:33:54;;;;;;;0.88;0.88;;;;;;;6.57;91.40;98282.47;4997404;28;20438;-77
2023/11/24 00:36:20;;;;;;;0.80;0.80;;;;;;;6.61;90.98;98284.34;4993755;28;20030;-77
2023/11/24 00:38:49;;;;;;;0.80;0.80;;;;;;;6.58;91.26;98284.28;4995426;28;20423;-77
2023/11/24 00:41:15;;;;;;;0.80;0.80;;;;;;;6.57;90.51;98266.56;4982748;28;20116;-77
2023/11/24 00:43:41;;;;;;;0.80;0.80;;;;;;;6.60;90.57;98266.66;4997232;28;20246;-77
2023/11/24 00:46:08;;;;;;;0.90;0.90;;;;;;;6.48;90.65;98261.81;4995323;28;20038;-76
2023/11/24 00:48:35;;;;;;;0.90;0.90;;;;;;;6.53;90.75;98262.88;5011834;28;20379;-77
2023/11/24 00:51:01;;;;;;;0.90;0.90;;;;;;;6.51;90.46;98274.25;4996062;28;20208;-77
2023/11/24 00:53:26;;;;;;;0.68;0.68;;;;;;;6.56;90.46;98259.44;4997525;28;21009;-77
2023/11/24 00:55:52;;;;;;;0.90;0.90;;;;;;;6.57;89.61;98256.88;4996617;28;20018;-76
2023/11/24 00:58:18;;;;;;;0.80;0.80;;;;;;;6.61;89.40;98250.84;4995428;28;20034;-76
2023/11/24 01:00:43;;;;;;;0.90;0.90;;;;;;;6.65;88.93;98236.81;4999244;28;20038;-76
2023/11/24 01:03:08;;;;;;;0.80;0.80;;;;;;;6.67;89.02;98247.50;5001314;28;20037;-77
2023/11/24 01:05:34;;;;;;;0.80;0.80;;;;;;;6.65;89.10;98246.53;4996417;28;20042;-77
2023/11/24 01:08:00;;;;;;;0.80;0.80;;;;;;;6.70;88.55;98242.28;5007551;28;20053;-78
2023/11/24 01:10:27;;;;;;;0.90;0.90;;;;;;;6.78;87.78;98237.28;4994073;28;20038;-77
2023/11/24 01:12:53;;;;;;;0.90;0.90;;;;;;;6.84;87.44;98233.09;4993301;28;20109;-77
2023/11/24 01:15:19;;;;;;;0.80;0.80;;;;;;;6.86;87.85;98242.00;4996645;28;20148;-76
2023/11/24 01:17:45;;;;;;;0.80;0.80;;;;;;;6.88;86.98;98242.97;4997191;28;20034;-76
2023/11/24 01:20:11;;;;;;;0.80;0.80;;;;;;;6.87;86.83;98254.41;4976668;28;20034;-76
2023/11/24 01:22:38;;;;;;;0.80;0.80;;;;;;;6.86;87.08;98241.13;5003034;28;20030;-76
2023/11/24 01:25:04;;;;;;;0.80;0.80;;;;;;;6.92;86.97;98243.97;4994425;28;20030;-77
2023/11/24 01:27:30;;;;;;;0.80;0.80;;;;;;;6.90;86.98;98235.97;4997373;28;20034;-77
2023/11/24 01:29:56;;;;;;;0.70;0.70;;;;;;;6.94;86.62;98237.84;4996849;28;20064;-78
2023/11/24 01:32:22;;;;;;;0.80;0.80;;;;;;;7.01;85.99;98235.44;4995848;28;20069;-77
2023/11/24 01:34:48;;;;;;;0.80;0.80;;;;;;;6.96;86.29;98237.03;4996784;28;20045;-77
2023/11/24 01:37:14;;;;;;;0.80;0.80;;;;;;;7.02;85.68;98242.53;4998703;28;20045;-76
2023/11/24 01:39:39;;;;;;;0.80;0.80;;;;;;;6.87;86.38;98238.50;5000481;28;20042;-78
2023/11/24 01:42:05;;;;;;;0.73;0.73;;;;;;;6.94;86.23;98227.25;5000056;28;20026;-78
2023/11/24 01:44:30;;;;;;;0.80;0.80;;;;;;;6.91;86.52;98213.00;4998010;28;20034;-77
2023/11/24 01:46:56;;;;;;;0.80;0.80;;;;;;;6.89;87.02;98202.31;4999806;28;20534;-77
2023/11/24 01:49:23;;;;;;;0.90;0.90;;;;;;;6.86;87.17;98207.53;4995997;28;20036;-77
2023/11/24 01:51:49;;;;;;;0.80;0.80;;;;;;;6.94;86.61;98203.38;4976462;28;20088;-77
2023/11/24 01:54:18;;;;;;;0.80;0.80;;;;;;;6.88;87.60;98203.19;4988848;28;20065;-77
2023/11/24 01:56:45;;;;;;;0.70;0.70;;;;;;;6.93;87.54;98208.66;4998149;28;21152;-77
2023/11/24 01:59:13;;;;;;;0.90;0.90;;;;;;;6.94;87.45;98208.69;5000336;28;20030;-78
2023/11/24 02:01:39;;;;;;;0.80;0.80;;;;;;;6.90;87.54;98200.59;4995762;28;20065;-77
2023/11/24 02:04:05;;;;;;;0.80;0.80;;;;;;;6.81;87.95;98210.88;4994116;28;20103;-77
2023/11/24 02:06:31;;;;;;;0.80;0.80;;;;;;;6.90;88.09;98200.59;4995743;28;20125;-77
2023/11/24 02:08:56;;;;;;;0.80;0.80;;;;;;;6.85;88.78;98208.41;4995095;28;20434;-77
2023/11/24 02:11:22;;;;;;;0.80;0.80;;;;;;;6.89;88.60;98197.03;4995712;28;20089;-77
2023/11/24 02:13:48;;;;;;;0.70;0.70;;;;;;;7.02;88.87;98195.72;4993764;28;20125;-77
2023/11/24 02:16:14;;;;;;;0.80;0.80;;;;;;;7.49;88.03;98174.25;4995996;28;20384;-77
2023/11/24 02:18:39;;;;;;;0.70;0.70;;;;;;;7.78;86.84;98189.34;4989673;28;20033;-76
2023/11/24 02:21:05;;;;;;;0.80;0.80;;;;;;;7.81;86.79;98178.84;4995037;28;20034;-76
2023/11/24 02:23:31;;;;;;;0.80;0.80;;;;;;;7.84;87.09;98189.53;5000585;28;20188;-76
2023/11/24 02:25:57;;;;;;;0.70;0.70;;;;;;;7.78;86.75;98192.00;4994254;28;20034;-76
2023/11/24 02:28:22;;;;;;;0.80;0.80;;;;;;;7.87;86.86;98176.38;4994870;28;20440;-75
2023/11/24 02:30:48;;;;;;;0.77;0.77;;;;;;;7.78;87.71;98194.66;4993900;28;20538;-76
2023/11/24 02:33:15;;;;;;;0.80;0.80;;;;;;;7.74;88.66;98176.84;4989032;28;20049;-76
2023/11/24 02:35:42;;;;;;;0.80;0.80;;;;;;;7.73;88.78;98169.72;4977277;28;20029;-76
2023/11/24 02:38:08;;;;;;;0.80;0.80;;;;;;;7.61;89.14;98169.31;4989481;28;20042;-76
2023/11/24 02:40:34;;;;;;;0.70;0.70;;;;;;;7.59;89.43;98166.63;4991872;28;20018;-76
2023/11/24 02:43:00;;;;;;;0.70;0.70;;;;;;;7.57;89.20;98165.69;4992289;28;20404;-77
2023/11/24 02:45:25;;;;;;;0.80;0.80;;;;;;;7.64;88.86;98161.47;4994315;28;20056;-77
2023/11/24 02:47:51;;;;;;;0.80;0.80;;;;;;;7.59;88.86;98155.13;4995111;28;20046;-76
2023/11/24 02:50:17;;;;;;;0.77;0.77;;;;;;;7.53;89.15;98155.84;4992430;28;20067;-78
2023/11/24 02:52:43;;;;;;;0.80;0.80;;;;;;;7.59;88.68;98128.56;4982085;28;20506;-77
2023/11/24 02:55:10;;;;;;;0.80;0.80;;;;;;;7.58;88.83;98116.16;4992572;28;20037;-77
2023/11/24 02:57:36;;;;;;;0.80;0.80;;;;;;;7.50;88.80;98122.97;4990854;28;20132;-78
2023/11/24 03:00:05;;;;;;;0.80;0.80;;;;;;;7.51;88.91;98115.06;4991766;28;20796;-79
2023/11/24 03:02:30;;;;;;;0.70;0.70;;;;;;;7.50;88.87;98117.66;4992014;28;20369;-77
2023/11/24 03:04:56;;;;;;;0.80;0.80;;;;;;;7.56;89.13;98120.50;4991922;28;20084;-77
2023/11/24 03:07:22;;;;;;;0.70;0.70;;;;;;;7.58;88.97;98121.47;4987437;28;20565;-77
2023/11/24 03:09:47;;;;;;;0.80;0.80;;;;;;;7.60;89.04;98119.75;4993297;28;20589;-77
2023/11/24 03:12:13;;;;;;;0.80;0.80;;;;;;;7.61;88.68;98110.94;4989473;28;20049;-78
2023/11/24 03:14:42;;;;;;;0.70;0.70;;;;;;;7.61;88.75;98109.16;4993124;28;20033;-77
2023/11/24 03:17:08;;;;;;;0.75;0.75;;;;;;;7.66;88.15;98114.63;4986164;28;20033;-76
2023/11/24 03:19:33;;;;;;;0.70;0.70;;;;;;;7.73;87.69;98116.63;4992969;28;20041;-76
2023/11/24 03:21:58;;;;;;;0.80;0.80;;;;;;;7.82;87.02;98100.97;4994102;28;20048;-75
2023/11/24 03:24:25;;;;;;;0.70;0.70;;;;;;;7.80;87.30;98102.66;4993343;28;20046;-76
2023/11/24 03:26:51;;;;;;;0.70;0.70;;;;;;;7.84;86.94;98101.91;4991175;28;20033;-76
2023/11/24 03:29:16;;;;;;;0.70;0.70;;;;;;;7.92;86.25;98087.09;4991831;28;20140;-77
2023/11/24 03:31:42;;;;;;;0.70;0.70;;;;;;;7.92;86.57;98078.22;4992555;28;20291;-77
2023/11/24 03:34:07;;;;;;;0.70;0.70;;;;;;;8.02;86.45;98084.72;4993099;28;20026;-78
2023/11/24 03:36:32;;;;;;;0.77;0.77;;;;;;;8.01;86.27;98090.88;4997710;28;20125;-76
2023/11/24 03:38:58;;;;;;;0.70;0.70;;;;;;;7.91;86.58;98085.31;4991789;28;21492;-78
2023/11/24 03:41:23;;;;;;;0.70;0.70;;;;;;;7.78;87.65;98087.56;4992228;28;20514;-77
2023/11/24 03:43:49;;;;;;;0.70;0.70;;;;;;;7.73;87.45;98090.06;4993004;28;20076;-77
2023/11/24 03:46:15;;;;;;;0.70;0.70;;;;;;;7.67;87.71;98089.91;4994114;28;20140;-76
2023/11/24 03:48:41;;;;;;;0.75;0.75;;;;;;;7.57;87.84;98088.72;4993622;28;20331;-76
2023/11/24 03:51:06;;;;;;;0.70;0.70;;;;;;;7.65;87.46;98089.81;4996751;28;20390;-76
2023/11/24 03:53:32;;;;;;;0.70;0.70;;;;;;;7.59;87.92;98079.03;4990360;28;20116;-76
2023/11/24 03:55:57;;;;;;;0.70;0.70;;;;;;;7.60;88.08;98085.25;4993088;28;20026;-77
2023/11/24 03:58:25;;;;;;;0.70;0.70;;;;;;;7.54;88.40;98080.66;4991733;28;20546;-77
2023/11/24 04:00:51;;;;;;;0.70;0.70;;;;;;;7.56;87.95;98083.34;4990619;28;20042;-77
2023/11/24 04:03:17;;;;;;;0.70;0.70;;;;;;;7.49;87.76;98070.75;4990779;28;20072;-76
2023/11/24 04:05:42;;;;;;;0.80;0.80;;;;;;;7.61;87.33;98065.78;4992175;28;20038;-77
2023/11/24 04:08:08;;;;;;;0.70;0.70;;;;;;;7.61;87.24;98072.00;4990955;28;20145;-76
2023/11/24 04:10:34;;;;;;;0.80;0.80;;;;;;;7.58;87.32;98060.41;4993573;28;20046;-77
2023/11/24 04:12:59;;;;;;;0.70;0.70;;;;;;;7.46;87.74;98052.97;4990063;28;20034;-76
2023/11/24 04:15:24;;;;;;;0.70;0.70;;;;;;;7.51;87.69;98064.63;4991369;28;20038;-77
2023/11/24 04:17:50;;;;;;;0.70;0.70;;;;;;;7.57;87.52;98048.91;4994146;28;20034;-77
2023/11/24 04:20:15;;;;;;;0.70;0.70;;;;;;;7.73;87.11;98055.56;4988072;28;20054;-77
2023/11/24 04:22:41;;;;;;;0.75;0.75;;;;;;;7.69;87.45;98056.31;4985525;28;20044;-77
2023/11/24 04:25:09;;;;;;;0.70;0.70;;;;;;;7.76;87.51;98049.41;4992868;28;20432;-77
2023/11/24 04:27:34;;;;;;;0.68;0.68;;;;;;;7.66;88.24;98049.16;4991125;28;20033;-77
2023/11/24 04:30:01;;;;;;;0.70;0.70;;;;;;;7.70;88.26;98053.69;4992367;28;20403;-76
2023/11/24 04:32:26;;;;;;;0.70;0.70;;;;;;;7.70;88.09;98058.09;4994243;28;20396;-77
2023/11/24 04:34:51;;;;;;;0.80;0.80;;;;;;;7.71;88.43;98057.25;4990539;28;20026;-76
2023/11/24 04:37:18;;;;;;;0.70;0.70;;;;;;;7.68;89.02;98078.41;4990703;28;20519;-76
2023/11/24 04:39:44;;;;;;;0.60;0.60;;;;;;;7.59;89.18;98070.16;4990479;28;20030;-76
2023/11/24 04:42:10;;;;;;;0.80;0.80;;;;;;;7.58;89.53;98074.59;4994615;28;20431;-77
2023/11/24 04:44:36;;;;;;;0.80;0.80;;;;;;;7.52;89.36;98074.41;4991460;28;20465;-76
2023/11/24 04:47:03;;;;;;;0.80;0.80;;;;;;;7.54;89.63;98064.72;4978882;28;20045;-77
2023/11/24 04:49:28;;;;;;;0.70;0.70;;;;;;;7.49;89.91;98081.38;4996639;28;20038;-77
2023/11/24 04:51:54;;;;;;;0.70;0.70;;;;;;;7.42;90.44;98094.44;4990226;28;20036;-76
2023/11/24 04:54:21;;;;;;;0.80;0.80;;;;;;;7.28;86.89;98082.50;4996405;28;20558;-77
2023/11/24 04:56:47;;;;;;;0.80;0.80;;;;;;;6.94;83.32;98096.41;4996663;28;20104;-77
2023/11/24 04:59:12;;;;;;;0.80;0.80;;;;;;;6.72;82.65;98089.50;4976725;28;20038;-77
2023/11/24 05:01:38;;;;;;;0.80;0.80;;;;;;;6.61;80.81;98090.88;4992762;28;20038;-77
2023/11/24 05:04:03;;;;;;;0.80;0.80;;;;;;;6.40;83.80;98104.28;4998427;28;20049;-77
2023/11/24 05:06:29;;;;;;;0.70;0.70;;;;;;;6.22;83.88;98096.59;4997113;28;20072;-77
2023/11/24 05:08:54;;;;;;;0.70;0.70;;;;;;;6.31;83.79;98104.88;4995239;28;20726;-77
2023/11/24 05:11:21;;;;;;;0.80;0.80;;;;;;;6.21;84.87;98094.78;4994044;28;20044;-77
2023/11/24 05:13:47;;;;;;;0.80;0.80;;;;;;;6.12;84.32;98078.56;4994380;28;20567;-77
2023/11/24 05:16:13;;;;;;;0.70;0.70;;;;;;;6.17;82.71;98072.59;4995084;28;20053;-76
2023/11/24 05:18:41;;;;;;;0.80;0.80;;;;;;;6.06;84.46;98091.59;4994771;28;20364;-76
2023/11/24 05:21:06;;;;;;;0.80;0.80;;;;;;;5.95;85.48;98085.00;4994329;28;20030;-76
2023/11/24 05:23:33;;;;;;;0.80;0.80;;;;;;;5.89;86.02;98089.22;4995740;28;20041;-76
2023/11/24 05:25:58;;;;;;;0.80;0.80;;;;;;;5.89;86.43;98078.63;4993534;28;20427;-76
2023/11/24 05:28:24;;;;;;;0.80;0.80;;;;;;;5.96;84.57;98084.16;4994233;28;20038;-76
2023/11/24 05:30:49;;;;;;;0.90;0.90;;;;;;;5.89;84.68;98078.63;4993505;28;20041;-76
2023/11/24 05:33:15;;;;;;;0.90;0.90;;;;;;;5.82;85.30;98083.63;4992174;28;20089;-77
2023/11/24 05:35:40;;;;;;;0.90;0.90;;;;;;;5.86;85.55;98078.50;4995706;28;20557;-76
2023/11/24 05:38:06;;;;;;;0.80;0.80;;;;;;;5.83;85.41;98073.06;4993254;28;20030;-76
2023/11/24 05:40:32;;;;;;;0.90;0.90;;;;;;;5.88;85.07;98068.84;4992129;28;20033;-76
2023/11/24 05:42:57;;;;;;;0.90;0.90;;;;;;;5.74;85.84;98064.78;4993350;28;20036;-77
2023/11/24 05:45:23;;;;;;;0.80;0.80;;;;;;;5.77;85.59;98070.22;4992313;28;20591;-76
2023/11/24 05:47:48;;;;;;;0.90;0.90;;;;;;;5.70;85.46;98076.13;4994039;28;20034;-76
2023/11/24 05:50:18;;;;;;;0.80;0.80;;;;;;;5.73;84.84;98055.06;4993957;28;20046;-76
2023/11/24 05:52:43;;;;;;;0.90;0.90;;;;;;;5.72;85.04;98061.19;4992077;28;20030;-76
2023/11/24 05:55:09;;;;;;;0.80;0.80;;;;;;;5.70;84.99;98057.63;4995740;28;20033;-76
2023/11/24 05:57:37;;;;;;;0.95;0.95;;;;;;;5.68;84.85;98055.72;4991989;28;20772;-77
2023/11/24 06:00:08;;;;;;;0.90;0.90;;;;;;;5.69;85.38;98061.06;5000799;28;20031;-75
2023/11/24 06:02:37;;;;;;;0.90;0.90;;;;;;;5.74;85.19;98053.31;4994294;28;20042;-77
2023/11/24 06:05:06;;;;;;;0.80;0.80;;;;;;;5.68;84.83;98061.03;4988370;28;21412;-76
2023/11/24 06:07:32;;;;;;;0.80;0.80;;;;;;;5.66;85.09;98060.97;4974335;28;20819;-76
2023/11/24 06:09:57;;;;;;;0.80;0.80;;;;;;;5.60;85.40;98060.72;4989649;28;20026;-75
2023/11/24 06:12:22;;;;;;;0.90;0.90;;;;;;;5.63;85.57;98055.56;4993618;28;20052;-75
2023/11/24 06:14:48;;;;;;;0.80;0.80;;;;;;;5.66;85.15;98037.16;4993443;28;20109;-76
2023/11/24 06:17:13;;;;;;;0.80;0.80;;;;;;;5.64;85.19;98034.44;4991205;28;20030;-76
2023/11/24 06:19:39;;;;;;;0.90;0.90;;;;;;;5.56;85.88;98035.94;4994136;28;20022;-75
2023/11/24 06:22:04;;;;;;;0.80;0.80;;;;;;;5.48;85.54;98044.41;4983030;28;20026;-78
2023/11/24 06:24:30;;;;;;;0.90;0.90;;;;;;;5.47;86.36;98035.56;4995413;28;20038;-75
2023/11/24 06:26:56;;;;;;;0.80;0.80;;;;;;;5.48;85.42;98032.09;4991733;28;20133;-77
2023/11/24 06:29:24;;;;;;;0.80;0.80;;;;;;;5.50;84.96;98037.41;4995445;28;20046;-76
2023/11/24 06:31:50;;;;;;;0.80;0.80;;;;;;;5.48;84.76;98034.72;4994457;28;20045;-78
2023/11/24 06:34:17;;;;;;;0.85;0.85;;;;;;;5.45;84.76;98028.41;4996321;28;20042;-76
2023/11/24 06:36:42;;;;;;;1.00;1.00;;;;;;;5.48;84.94;98031.19;4993240;28;20014;-77
2023/11/24 06:39:10;;;;;;;0.82;0.82;;;;;;;5.38;85.56;98036.13;4994069;28;20037;-76
2023/11/24 06:41:39;;;;;;;0.90;0.90;;;;;;;5.45;84.77;98041.63;4995455;28;20030;-77
2023/11/24 06:44:05;;;;;;;0.80;0.80;;;;;;;5.39;85.13;98048.50;4994438;28;20113;-78
2023/11/24 06:46:30;;;;;;;0.80;0.80;;;;;;;5.33;85.71;98042.97;4993546;28;20491;-78
2023/11/24 06:48:55;;;;;;;0.80;0.80;;;;;;;5.46;84.69;98039.06;4993984;28;20049;-77
2023/11/24 06:51:21;;;;;;;0.80;0.80;;;;;;;5.46;85.07;98043.44;4994300;28;20037;-77
2023/11/24 06:53:47;;;;;;;0.70;0.70;;;;;;;5.47;84.96;98030.28;4993875;28;20048;-77
2023/11/24 06:56:12;;;;;;;0.80;0.80;;;;;;;5.50;85.07;98034.78;4995217;28;20735;-77
2023/11/24 06:58:38;;;;;;;0.80;0.80;;;;;;;5.56;85.18;98035.03;4991608;28;20022;-77
2023/11/24 07:01:04;;;;;;;0.80;0.80;;;;;;;5.51;85.54;98047.16;4994001;28;20047;-76
2023/11/24 07:03:33;;;;;;;0.90;0.90;;;;;;;5.56;84.86;98035.03;4993991;28;20049;-76
2023/11/24 07:06:00;;;;;;;0.80;0.80;;;;;;;5.47;85.18;98034.69;4994015;28;20124;-76
2023/11/24 07:08:26;;;;;;;0.82;0.82;;;;;;;5.48;85.30;98029.44;4991308;28;20096;-76
2023/11/24 07:10:51;;;;;;;0.80;0.80;;;;;;;5.45;85.98;98041.63;4995329;28;20099;-77
2023/11/24 07:13:17;;;;;;;0.80;0.80;;;;;;;5.44;86.03;98030.16;4994860;28;20046;-79
2023/11/24 07:15:42;;;;;;;0.80;0.80;;;;;;;5.48;86.12;98026.78;4993765;28;20034;-77
2023/11/24 07:18:09;;;;;;;0.73;0.73;;;;;;;5.53;86.22;98027.84;4994222;28;22026;-77
2023/11/24 07:20:34;;;;;;;0.80;0.80;;;;;;;5.43;86.59;98028.38;4992604;28;20088;-77
2023/11/24 07:23:00;;;;;;;0.80;0.80;;;;;;;5.44;87.16;98039.84;4994617;28;20041;-77
2023/11/24 07:25:26;;;;;;;0.80;0.80;;;;;;;5.49;87.32;98028.59;4994186;28;20025;-77
2023/11/24 07:27:51;;;;;;;0.80;0.80;;;;;;;5.58;87.40;98025.38;4990237;28;20387;-77
2023/11/24 07:30:18;;;;;;;0.85;0.85;;;;;;;5.41;87.67;98008.88;4995143;28;20667;-77
2023/11/24 07:32:44;;;;;;;0.90;0.90;;;;;;;5.40;87.67;98022.94;4995388;28;20041;-79
2023/11/24 07:35:10;;;;;;;0.70;0.70;;;;;;;5.43;87.91;98016.88;4991860;28;20101;-78
2023/11/24 07:37:36;;;;;;;0.80;0.80;;;;;;;5.44;87.01;98018.69;4990737;28;20041;-78
2023/11/24 07:40:08;;;;;;;0.80;0.80;;;;;;;5.53;87.22;98017.28;4992263;28;20045;-78
2023/11/24 07:42:34;;;;;;;0.80;0.80;;;;;;;5.69;86.86;98007.25;4994984;28;20042;-78
2023/11/24 07:45:00;;;;;;;0.80;0.80;;;;;;;5.81;86.16;98013.91;4994463;28;20030;-78
2023/11/24 07:47:25;;;;;;;0.80;0.80;;;;;;;5.72;86.18;98010.03;5007158;28;20046;-78
2023/11/24 07:49:53;;;;;;;0.80;0.80;;;;;;;5.83;86.36;97996.31;4993919;28;20033;-78
2023/11/24 07:52:19;;;;;;;0.80;0.80;;;;;;;5.85;86.12;97999.94;4991914;28;20153;-78
2023/11/24 07:54:44;;;;;;;0.70;0.70;;;;;;;5.76;86.47;97993.41;4990888;28;20112;-78
2023/11/24 07:57:09;;;;;;;0.80;0.80;;;;;;;5.93;86.13;97986.09;4992332;28;20038;-78
2023/11/24 07:59:35;;;;;;;0.80;0.80;;;;;;;6.04;85.57;97992.69;4992372;28;20066;-77
2023/11/24 08:02:00;;;;;;;0.70;0.70;;;;;;;5.95;85.92;97980.00;4995668;28;20052;-77
2023/11/24 08:04:27;;;;;;;0.70;0.70;;;;;;;5.95;85.67;97966.78;4988753;28;20032;-77
2023/11/24 08:06:54;;;;;;;0.90;0.90;;;;;;;5.84;85.76;97955.75;4993902;28;20030;-78
2023/11/24 08:09:22;;;;;;;0.80;0.80;;;;;;;5.81;86.25;97963.59;4983180;28;20791;-78
2023/11/24 08:11:47;;;;;;;0.70;0.70;;;;;;;6.00;85.60;97970.47;4994423;28;20038;-78
2023/11/24 08:14:14;;;;;;;0.80;0.80;;;;;;;6.08;85.14;97968.97;4992305;28;20033;-78
2023/11/24 08:16:39;;;;;;;0.80;0.80;;;;;;;5.97;85.59;97969.47;4991587;28;20619;-79
2023/11/24 08:19:05;;;;;;;0.80;0.80;;;;;;;5.91;85.85;97963.13;4992360;28;20390;-78
2023/11/24 08:21:30;;;;;;;0.90;0.90;;;;;;;5.87;86.74;97963.81;4995680;28;20037;-79
2023/11/24 08:23:56;;;;;;;0.80;0.80;;;;;;;5.88;86.79;97960.31;4995002;28;20038;-78
2023/11/24 08:26:21;;;;;;;0.80;0.80;;;;;;;5.91;86.50;97955.16;4992303;28;20032;-78
2023/11/24 08:28:48;;;;;;;0.80;0.80;;;;;;;6.01;86.20;97945.78;4997326;28;20031;-78
2023/11/24 08:31:21;;;;;;;0.80;0.80;;;;;;;6.04;85.99;97948.56;4995395;28;20424;-78
2023/11/24 08:33:47;;;;;;;0.80;0.80;;;;;;;5.92;86.25;97945.47;4996716;28;20386;-78
2023/11/24 08:36:15;;;;;;;0.73;0.73;;;;;;;5.95;86.20;97937.66;4996546;28;20030;-77
2023/11/24 08:38:41;;;;;;;0.77;0.77;;;;;;;6.03;85.86;97949.38;4997582;28;20065;-78
2023/11/24 08:41:14;;;;;;;0.80;0.80;;;;;;;5.97;85.75;97945.63;4998995;28;20658;-77
2023/11/24 08:43:40;;;;;;;0.80;0.80;;;;;;;5.94;85.71;97948.16;4997360;28;20252;-77
2023/11/24 08:46:08;;;;;;;0.70;0.70;;;;;;;5.91;86.40;97948.94;5001620;28;20125;-77
2023/11/24 08:48:35;;;;;;;0.90;0.90;;;;;;;6.01;85.56;97939.59;4996877;28;20579;-77
2023/11/24 08:51:00;;;;;;;0.80;0.80;;;;;;;6.10;85.02;97918.72;5001878;28;20047;-76
2023/11/24 08:53:27;;;;;;;0.90;0.90;;;;;;;6.12;85.28;97922.31;4994256;28;20032;-78
2023/11/24 08:55:53;;;;;;;0.90;0.90;;;;;;;6.15;85.02;97925.09;4994780;28;20040;-77
2023/11/24 08:58:19;;;;;;;0.90;0.90;;;;;;;6.22;84.81;97919.13;4996215;28;20030;-77
2023/11/24 09:00:45;;;;;;;0.80;0.80;;;;;;;6.17;85.21;97916.31;4992242;28;20034;-77
2023/11/24 09:03:12;;;;;;;0.90;0.90;;;;;;;6.14;83.94;97913.59;4994034;28;20033;-77
2023/11/24 09:05:41;;;;;;;0.90;0.90;;;;;;;6.16;84.41;97927.78;4995707;28;20498;-77
2023/11/24 09:08:07;;;;;;;0.80;0.80;;;;;;;6.05;83.90;97936.22;4995627;28;20312;-77
2023/11/24 09:10:32;;;;;;;0.80;0.80;;;;;;;5.93;83.50;97936.69;4994917;28;20530;-78
2023/11/24 09:12:58;;;;;;;0.80;0.80;;;;;;;5.73;84.40;97925.38;4996621;28;20527;-78
2023/11/24 09:15:24;;;;;;;0.90;0.90;;;;;;;5.54;83.53;97907.06;4994870;28;20026;-76
2023/11/24 09:17:50;;;;;;;1.00;1.00;;;;;;;5.45;84.13;97909.38;4996343;28;20025;-77
2023/11/24 09:20:18;;;;;;;0.90;0.90;;;;;;;5.33;84.54;97917.78;4996153;28;20841;-78
2023/11/24 09:22:44;;;;;;;0.90;0.90;;;;;;;5.21;83.59;97914.66;4994401;28;20076;-77
2023/11/24 09:25:11;;;;;;;0.90;0.90;;;;;;;5.26;83.63;97919.28;4995810;28;20116;-78
2023/11/24 09:27:38;;;;;;;1.00;1.00;;;;;;;5.07;83.39;97915.06;4995228;28;20030;-78
2023/11/24 09:30:09;;;;;;;0.90;0.90;;;;;;;5.09;83.10;97908.09;4995652;28;20618;-77
2023/11/24 09:32:37;;;;;;;0.90;0.90;;;;;;;5.02;83.52;97905.16;4985238;28;20148;-77
2023/11/24 09:35:07;;;;;;;1.00;1.00;;;;;;;5.13;83.91;97901.19;4994674;28;20038;-77
2023/11/24 09:37:34;;;;;;;0.93;0.93;;;;;;;5.22;83.75;97895.31;4996051;28;20463;-77
2023/11/24 09:40:00;;;;;;;0.90;0.90;;;;;;;5.26;83.68;97898.13;4997010;28;20045;-77
2023/11/24 09:42:30;;;;;;;0.90;0.90;;;;;;;5.31;83.58;97893.00;4995337;28;20067;-77
2023/11/24 09:45:03;;;;;;;1.00;1.00;;;;;;;5.36;83.45;97894.97;4995013;28;20121;-77
2023/11/24 09:47:31;;;;;;;0.90;0.90;;;;;;;5.48;83.50;97888.31;4990727;28;20050;-77
2023/11/24 09:49:59;;;;;;;0.90;0.90;;;;;;;5.63;83.38;97870.34;5001974;28;20069;-77
2023/11/24 09:52:27;;;;;;;0.90;0.90;;;;;;;5.90;82.71;97875.69;4994635;28;20066;-77
2023/11/24 09:54:59;;;;;;;0.90;0.90;;;;;;;6.03;82.36;97864.66;4995224;28;20033;-76
2023/11/24 09:57:24;;;;;;;0.90;0.90;;;;;;;6.06;82.09;97867.41;4995731;28;20044;-76
2023/11/24 09:59:50;;;;;;;0.80;0.80;;;;;;;5.93;82.28;97859.00;4977858;28;20018;-78
2023/11/24 10:02:22;;;;;;;0.80;0.80;;;;;;;5.84;82.65;97847.22;4997576;28;20030;-76
2023/11/24 10:04:50;;;;;;;0.80;0.80;;;;;;;5.86;83.33;97836.72;4993132;28;20680;-77
2023/11/24 10:07:22;;;;;;;0.80;0.80;;;;;;;5.74;83.49;97831.00;4995819;28;20034;-76
2023/11/24 10:09:48;;;;;;;0.85;0.85;;;;;;;5.65;84.45;97811.34;4989298;28;20035;-76
2023/11/24 10:12:17;;;;;;;0.90;0.90;;;;;;;5.62;85.42;97815.63;4995103;28;20030;-76
2023/11/24 10:14:44;;;;;;;0.90;0.90;;;;;;;5.58;86.60;97821.66;4995429;28;20068;-80
2023/11/24 10:17:10;;;;;;;0.90;0.90;;;;;;;5.44;86.82;97823.81;5000990;28;20027;-77
2023/11/24 10:19:36;;;;;;;0.80;0.80;;;;;;;5.25;86.44;97808.16;4993951;28;20080;-77
2023/11/24 10:22:02;;;;;;;0.90;0.90;;;;;;;5.22;86.47;97801.03;4991993;28;20030;-77
2023/11/24 10:24:32;;;;;;;0.90;0.90;;;;;;;5.30;85.89;97786.31;4987294;28;20030;-77
2023/11/24 10:27:07;;;;;;;0.90;0.90;;;;;;;5.33;85.79;97780.25;4994016;28;20030;-76
2023/11/24 10:29:32;;;;;;;0.95;0.95;;;;;;;5.30;86.83;97788.97;4991336;28;20069;-76
2023/11/24 10:31:57;;;;;;;0.85;0.85;;;;;;;5.29;87.57;97792.47;4991997;28;20109;-76
2023/11/24 10:34:24;;;;;;;0.90;0.90;;;;;;;5.27;88.92;97809.09;4994457;28;20033;-76
2023/11/24 10:36:51;;;;;;;0.90;0.90;;;;;;;5.02;86.08;97812.63;4988332;28;20570;-77
2023/11/24 10:39:20;;;;;;;0.90;0.90;;;;;;;4.43;84.00;97811.34;4998091;28;20385;-77
2023/11/24 10:41:47;;;;;;;0.90;0.90;;;;;;;3.92;86.17;97811.09;4993099;28;20029;-77
2023/11/24 10:44:15;;;;;;;0.90;0.90;;;;;;;3.76;87.11;97804.31;4992498;28;20030;-77
2023/11/24 10:46:47;;;;;;;0.90;0.90;;;;;;;3.65;87.20;97795.97;4992568;28;20030;-77
2023/11/24 10:49:22;;;;;;;0.90;0.90;;;;;;;3.67;86.53;97807.47;4990986;28;20488;-77
2023/11/24 10:52:00;;;;;;;0.85;0.85;;;;;;;3.64;87.44;97802.09;4997604;28;20026;-76
2023/11/24 10:54:32;;;;;;;0.90;0.90;;;;;;;3.59;86.87;97793.03;4993149;28;20030;-77
2023/11/24 10:56:59;;;;;;;1.00;1.00;;;;;;;3.58;88.21;97796.53;4991360;28;20014;-77
2023/11/24 10:59:29;;;;;;;1.00;1.00;;;;;;;3.74;87.61;97785.78;4993303;28;20044;-77
2023/11/24 11:01:57;;;;;;;1.00;1.00;;;;;;;3.62;87.79;97772.09;4990602;28;20111;-77
2023/11/24 11:04:23;;;;;;;1.00;1.00;;;;;;;3.62;86.95;97760.63;4983625;28;20339;-76
2023/11/24 11:07:04;;;;;;;1.00;1.00;;;;;;;3.72;87.05;97742.59;4986053;28;20057;-76
2023/11/24 11:09:42;;;;;;;1.05;1.05;;;;;;;3.97;86.65;97748.84;4991437;28;20038;-76
2023/11/24 11:12:53;;;;;;;1.00;1.00;;;;;;;4.07;85.63;97751.91;4989702;28;21062;-78
2023/11/24 11:14:56;;;;;;;1.00;1.00;;;;;;;4.09;87.22;97762.53;4975871;28;20057;-77
2023/11/24 11:17:25;;;;;;;0.82;0.82;;;;;;;4.13;86.43;97748.59;4979153;28;20725;-77
2023/11/24 11:20:09;;;;;;;1.00;1.00;;;;;;;4.13;87.05;97732.75;4990961;28;20095;-79
2023/11/24 11:22:36;;;;;;;1.00;1.00;;;;;;;4.34;86.74;97711.53;4986971;28;20061;-78
2023/11/24 11:25:27;;;;;;;1.00;1.00;;;;;;;4.92;85.00;97702.16;4985171;28;20474;-77
2023/11/24 11:28:23;;;;;;;1.10;1.10;;;;;;;5.83;82.16;97696.31;4992882;28;20136;-77
2023/11/24 11:30:50;;;;;;;0.90;0.90;;;;;;;5.55;83.51;97690.16;4984847;28;20040;-77
2023/11/24 11:33:20;;;;;;;1.00;1.00;;;;;;;5.39;84.99;97699.34;4983546;28;20030;-76
2023/11/24 11:35:46;;;;;;;0.90;0.90;;;;;;;5.37;86.21;97698.41;4989612;28;20053;-77
2023/11/24 11:38:14;;;;;;;0.90;0.90;;;;;;;5.23;85.55;97685.59;4984677;28;20125;-76
2023/11/24 11:40:47;;;;;;;0.90;0.90;;;;;;;5.17;85.80;97686.25;4988899;28;20030;-76